createdAt,value
2018-10-12T00:00:40.876Z,18.93
2018-10-12T00:03:09.765Z,18.07
2018-10-12T00:05:38.016Z,14.50
2018-10-12T00:08:06.252Z,20.12
2018-10-12T00:10:34.468Z,15.63
2018-10-12T00:13:02.744Z,17.10
2018-10-12T00:15:31.205Z,15.57
2018-10-12T00:17:59.600Z,20.83
2018-10-12T00:20:28.164Z,19.90
2018-10-12T00:22:56.391Z,18.62
2018-10-12T00:25:25.560Z,23.30
2018-10-12T00:27:53.839Z,19.63
2018-10-12T00:30:22.054Z,15.28
2018-10-12T00:32:50.675Z,17.55
2018-10-12T00:35:18.882Z,16.53
2018-10-12T00:37:47.076Z,15.53
2018-10-12T00:40:15.341Z,20.63
2018-10-12T00:42:43.531Z,15.33
2018-10-12T00:45:14.614Z,19.53
2018-10-12T00:47:42.792Z,16.27
2018-10-12T00:50:11.091Z,22.00
2018-10-12T00:52:39.325Z,16.67
2018-10-12T00:55:07.511Z,18.73
2018-10-12T00:57:35.765Z,21.20
2018-10-12T01:00:04.944Z,18.85
2018-10-12T01:02:33.199Z,20.70
2018-10-12T01:05:01.415Z,16.20
2018-10-12T01:07:30.127Z,16.55
2018-10-12T01:09:58.359Z,13.90
2018-10-12T01:12:31.445Z,18.00
2018-10-12T01:15:00.693Z,17.65
2018-10-12T01:17:29.400Z,16.67
2018-10-12T01:19:57.987Z,19.62
2018-10-12T01:22:27.395Z,15.53
2018-10-12T01:24:56.373Z,20.47
2018-10-12T01:27:25.838Z,15.13
2018-10-12T01:29:54.464Z,17.67
2018-10-12T01:32:28.013Z,15.70
2018-10-12T01:34:56.191Z,19.23
2018-10-12T01:37:24.727Z,16.73
2018-10-12T01:39:52.897Z,16.48
2018-10-12T01:42:21.125Z,17.52
2018-10-12T01:44:49.303Z,18.82
2018-10-12T01:47:20.333Z,16.93
2018-10-12T01:49:48.572Z,18.15
2018-10-12T01:52:16.797Z,17.27
2018-10-12T01:54:45.945Z,14.70
2018-10-12T01:57:14.169Z,17.05
2018-10-12T01:59:42.391Z,18.02
2018-10-12T02:02:14.401Z,14.63
2018-10-12T02:04:42.628Z,17.03
2018-10-12T02:07:11.444Z,24.07
2018-10-12T02:09:39.648Z,17.10
2018-10-12T02:12:07.892Z,16.37
2018-10-12T02:14:36.117Z,15.67
2018-10-12T02:17:04.307Z,14.00
2018-10-12T02:19:32.616Z,17.00
2018-10-12T02:22:00.848Z,19.53
2018-10-12T02:24:29.192Z,22.30
2018-10-12T02:26:57.404Z,15.00
2018-10-12T02:29:25.600Z,18.00
2018-10-12T02:31:57.400Z,15.07
2018-10-12T02:34:25.734Z,18.32
2018-10-12T02:36:54.212Z,18.03
2018-10-12T02:39:22.389Z,15.83
2018-10-12T02:41:50.599Z,15.53
2018-10-12T02:44:18.789Z,19.87
2018-10-12T02:46:47.040Z,17.63
2018-10-12T02:49:18.401Z,17.93
2018-10-12T02:51:46.579Z,16.80
2018-10-12T02:54:15.468Z,16.70
2018-10-12T02:56:43.683Z,17.70
2018-10-12T02:59:11.904Z,16.80
2018-10-12T03:01:40.146Z,21.40
2018-10-12T03:04:11.433Z,16.93
2018-10-12T03:06:40.393Z,18.30
2018-10-12T03:09:09.995Z,18.25
2018-10-12T03:11:38.388Z,19.10
2018-10-12T03:14:06.606Z,22.23
2018-10-12T03:16:35.468Z,15.15
2018-10-12T03:19:03.670Z,18.00
2018-10-12T03:21:32.313Z,18.65
2018-10-12T03:24:00.530Z,24.47
2018-10-12T03:26:28.968Z,20.00
2018-10-12T03:28:57.156Z,19.00
2018-10-12T03:31:25.377Z,20.70
2018-10-12T03:34:22.960Z,25.53
2018-10-12T03:37:20.803Z,18.50
2018-10-12T03:40:19.900Z,19.17
2018-10-12T03:43:17.764Z,17.43
2018-10-12T03:46:15.512Z,24.90
2018-10-12T03:49:13.500Z,19.87
2018-10-12T03:52:15.156Z,24.70
2018-10-12T03:54:43.432Z,22.25
2018-10-12T03:57:34.002Z,23.10
2018-10-12T04:00:33.233Z,20.57
2018-10-12T04:03:31.304Z,18.70
2018-10-12T04:06:28.900Z,18.80
2018-10-12T04:09:28.311Z,20.30
2018-10-12T04:12:26.146Z,21.87
2018-10-12T04:15:23.754Z,21.45
2018-10-12T04:17:51.958Z,22.20
2018-10-12T04:20:42.840Z,19.87
2018-10-12T04:23:41.769Z,20.77
2018-10-12T04:26:39.839Z,21.27
2018-10-12T04:29:38.203Z,24.23
2018-10-12T04:32:36.381Z,24.40
2018-10-12T04:35:12.132Z,17.57
2018-10-12T04:37:40.324Z,23.63
2018-10-12T04:40:15.876Z,23.95
2018-10-12T04:42:44.088Z,20.70
2018-10-12T04:45:12.335Z,23.38
2018-10-12T04:47:40.578Z,28.50
2018-10-12T04:50:08.770Z,23.63
2018-10-12T04:52:37.020Z,24.37
2018-10-12T04:55:05.280Z,28.23
2018-10-12T04:57:33.508Z,24.50
2018-10-12T05:00:01.756Z,27.87
2018-10-12T05:02:30.256Z,27.43
2018-10-12T05:05:01.960Z,25.00
2018-10-12T05:07:30.178Z,23.73
2018-10-12T05:09:58.421Z,24.00
2018-10-12T05:12:26.605Z,25.48
2018-10-12T05:14:54.815Z,24.87
2018-10-12T05:17:23.447Z,24.30
2018-10-12T05:19:55.007Z,32.08
2018-10-12T05:22:23.986Z,28.30
2018-10-12T05:24:52.289Z,26.40
2018-10-12T05:27:20.755Z,27.67
2018-10-12T05:29:49.061Z,23.43
2018-10-12T05:32:18.180Z,33.87
2018-10-12T05:34:50.362Z,27.73
2018-10-12T05:37:18.853Z,26.82
2018-10-12T05:39:47.052Z,26.23
2018-10-12T05:42:15.300Z,31.60
2018-10-12T05:44:43.719Z,31.50
2018-10-12T05:47:11.933Z,23.65
2018-10-12T05:49:51.554Z,21.07
2018-10-12T05:52:20.507Z,25.45
2018-10-12T05:54:48.771Z,30.13
2018-10-12T05:57:16.968Z,24.67
2018-10-12T05:59:45.277Z,26.42
2018-10-12T06:02:13.548Z,23.57
2018-10-12T06:04:41.775Z,26.20
2018-10-12T06:07:09.988Z,32.60
2018-10-12T06:09:38.599Z,23.93
2018-10-12T06:12:06.895Z,27.73
2018-10-12T06:14:35.397Z,28.20
2018-10-12T06:17:04.556Z,24.10
2018-10-12T06:19:32.912Z,30.17
2018-10-12T06:22:01.158Z,28.23
2018-10-12T06:24:29.489Z,27.58
2018-10-12T06:26:57.776Z,28.20
2018-10-12T06:29:26.120Z,24.45
2018-10-12T06:31:54.386Z,22.77
2018-10-12T06:34:22.591Z,27.70
2018-10-12T06:36:50.796Z,22.73
2018-10-12T06:39:19.023Z,29.57
2018-10-12T06:41:47.431Z,23.27
2018-10-12T06:44:15.425Z,23.40
2018-10-12T06:46:43.856Z,20.07
2018-10-12T06:49:11.977Z,35.83
2018-10-12T06:51:40.166Z,18.63
2018-10-12T06:54:08.863Z,26.93
2018-10-12T06:56:37.976Z,29.05
2018-10-12T06:59:06.185Z,23.60
2018-10-12T07:01:34.456Z,25.73
2018-10-12T07:04:02.873Z,22.60
2018-10-12T07:06:35.337Z,23.87
2018-10-12T07:09:03.870Z,20.80
2018-10-12T07:11:32.067Z,21.37
2018-10-12T07:14:00.595Z,29.77
2018-10-12T07:16:28.496Z,30.83
2018-10-12T07:18:56.727Z,22.35
2018-10-12T07:21:24.990Z,20.50
2018-10-12T07:23:53.407Z,28.93
2018-10-12T07:26:21.622Z,20.10
2018-10-12T07:28:49.819Z,29.43
2018-10-12T07:31:18.084Z,24.33
2018-10-12T07:33:46.240Z,24.17
2018-10-12T07:36:14.487Z,21.12
2018-10-12T07:38:42.681Z,18.40
2018-10-12T07:41:18.728Z,24.72
2018-10-12T07:43:46.960Z,23.50
2018-10-12T07:46:15.171Z,19.80
2018-10-12T07:48:43.410Z,19.50
2018-10-12T07:51:11.625Z,22.63
2018-10-12T07:53:39.849Z,24.37
2018-10-12T07:56:08.589Z,21.67
2018-10-12T07:58:36.771Z,24.73
2018-10-12T08:01:04.999Z,21.17
2018-10-12T08:03:33.205Z,24.87
2018-10-12T08:06:01.402Z,24.50
2018-10-12T08:08:29.624Z,26.50
2018-10-12T08:11:01.108Z,21.50
2018-10-12T08:13:29.304Z,25.20
2018-10-12T08:15:58.493Z,22.40
2018-10-12T08:18:28.064Z,22.97
2018-10-12T08:20:56.268Z,16.57
2018-10-12T08:23:24.459Z,14.35
2018-10-12T08:25:52.678Z,18.43
2018-10-12T08:28:21.206Z,21.50
2018-10-12T08:30:49.396Z,19.70
2018-10-12T08:33:17.700Z,16.77
2018-10-12T08:35:45.924Z,29.90
2018-10-12T08:38:17.311Z,17.37
2018-10-12T08:40:45.552Z,29.90
2018-10-12T08:43:13.785Z,21.70
2018-10-12T08:45:42.564Z,18.20
2018-10-12T08:48:10.746Z,27.50
2018-10-12T08:50:38.962Z,15.83
2018-10-12T08:53:11.168Z,16.90
2018-10-12T08:55:42.934Z,20.60
2018-10-12T08:58:11.184Z,15.70
2018-10-12T09:00:39.452Z,19.77
2018-10-12T09:03:08.383Z,19.82
2018-10-12T09:05:36.656Z,25.00
2018-10-12T09:08:04.880Z,18.50
2018-10-12T09:10:36.803Z,21.13
2018-10-12T09:13:05.048Z,14.17
2018-10-12T09:15:33.324Z,18.73
2018-10-12T09:18:01.573Z,20.52
2018-10-12T09:20:29.935Z,16.30
2018-10-12T09:22:58.143Z,17.10
2018-10-12T09:25:26.326Z,20.77
2018-10-12T09:27:54.856Z,15.40
2018-10-12T09:30:23.149Z,11.83
2018-10-12T09:32:51.360Z,12.80
2018-10-12T09:35:19.567Z,18.30
2018-10-12T09:37:47.834Z,18.35
2018-10-12T09:40:16.065Z,17.82
2018-10-12T09:42:44.304Z,13.23
2018-10-12T09:45:12.537Z,20.47
2018-10-12T09:47:40.748Z,20.80
2018-10-12T09:50:09.040Z,13.97
2018-10-12T09:52:37.239Z,25.20
2018-10-12T09:55:13.344Z,17.30
2018-10-12T09:57:41.543Z,22.83
2018-10-12T10:00:15.152Z,19.42
2018-10-12T10:02:48.899Z,16.05
2018-10-12T10:05:17.469Z,15.00
2018-10-12T10:07:45.793Z,11.80
2018-10-12T10:10:14.491Z,17.75
2018-10-12T10:12:42.672Z,15.45
2018-10-12T10:15:10.953Z,16.00
2018-10-12T10:17:39.184Z,12.40
2018-10-12T10:20:07.424Z,13.97
2018-10-12T10:22:35.743Z,16.20
2018-10-12T10:25:04.033Z,14.55
2018-10-12T10:27:32.258Z,15.93
2018-10-12T10:30:00.454Z,16.60
2018-10-12T10:32:28.703Z,11.03
2018-10-12T10:34:56.880Z,10.43
2018-10-12T10:37:25.108Z,15.10
2018-10-12T10:39:53.514Z,14.00
2018-10-12T10:42:21.669Z,12.63
2018-10-12T10:44:49.896Z,14.40
2018-10-12T10:47:18.111Z,11.67
2018-10-12T10:49:46.334Z,8.00
2018-10-12T10:52:14.733Z,10.90
2018-10-12T10:54:42.944Z,9.57
2018-10-12T10:57:11.133Z,11.03
2018-10-12T10:59:39.455Z,10.75
2018-10-12T11:02:07.661Z,9.50
2018-10-12T11:04:35.879Z,9.20
2018-10-12T11:07:04.309Z,19.47
2018-10-12T11:09:32.616Z,10.37
2018-10-12T11:12:00.836Z,9.67
2018-10-12T11:14:29.041Z,10.80
2018-10-12T11:16:57.212Z,14.23
2018-10-12T11:19:25.543Z,7.00
2018-10-12T11:21:53.717Z,10.93
2018-10-12T11:24:22.063Z,10.30
2018-10-12T11:26:51.185Z,8.80
2018-10-12T11:29:19.407Z,11.50
2018-10-12T11:31:48.013Z,11.03
2018-10-12T11:34:16.345Z,6.87
2018-10-12T11:36:44.573Z,7.70
2018-10-12T11:39:15.245Z,17.27
2018-10-12T11:41:43.969Z,10.87
2018-10-12T11:44:12.201Z,6.20
2018-10-12T11:46:41.329Z,10.30
2018-10-12T11:49:09.718Z,13.97
2018-10-12T11:51:38.205Z,10.53
2018-10-12T11:54:06.480Z,8.73
2018-10-12T11:56:34.671Z,11.95
2018-10-12T11:59:03.181Z,6.83
2018-10-12T12:01:31.803Z,9.87
2018-10-12T12:04:01.256Z,7.15
2018-10-12T12:06:29.522Z,8.88
2018-10-12T12:08:57.776Z,7.20
2018-10-12T12:11:29.563Z,10.23
2018-10-12T12:13:58.333Z,7.53
2018-10-12T12:16:26.596Z,11.40
2018-10-12T12:18:54.824Z,6.93
2018-10-12T12:21:23.304Z,7.77
2018-10-12T12:23:51.520Z,10.13
2018-10-12T12:26:19.752Z,7.50
2018-10-12T12:28:48.004Z,7.90
2018-10-12T12:31:16.320Z,11.63
2018-10-12T12:33:44.569Z,10.17
2018-10-12T12:36:13.911Z,6.80
2018-10-12T12:38:42.271Z,6.53
2018-10-12T12:41:10.848Z,12.97
2018-10-12T12:43:39.119Z,8.73
2018-10-12T12:46:07.390Z,10.27
2018-10-12T12:48:35.875Z,15.00
2018-10-12T12:51:03.817Z,7.93
2018-10-12T12:53:32.324Z,8.80
2018-10-12T12:56:00.541Z,5.47
2018-10-12T12:58:28.803Z,11.63
2018-10-12T13:00:57.418Z,8.33
2018-10-12T13:03:25.662Z,9.93
2018-10-12T13:05:54.516Z,5.70
2018-10-12T13:08:22.872Z,7.10
2018-10-12T13:10:51.106Z,9.63
2018-10-12T13:13:19.710Z,9.17
2018-10-12T13:15:48.106Z,7.50
2018-10-12T13:18:16.295Z,5.22
2018-10-12T13:20:44.560Z,5.20
2018-10-12T13:23:12.757Z,5.72
2018-10-12T13:25:41.023Z,5.00
2018-10-12T13:28:09.240Z,6.30
2018-10-12T13:30:37.569Z,5.17
2018-10-12T13:33:05.801Z,9.33
2018-10-12T13:35:34.053Z,9.40
2018-10-12T13:38:02.995Z,8.78
2018-10-12T13:40:31.233Z,7.83
2018-10-12T13:42:59.473Z,6.17
2018-10-12T13:45:28.033Z,4.87
2018-10-12T13:47:59.100Z,13.95
2018-10-12T13:50:29.335Z,7.97
2018-10-12T13:57:55.842Z,6.30
2018-10-12T14:00:24.223Z,7.00
2018-10-12T14:02:52.424Z,9.58
2018-10-12T14:05:21.307Z,6.13
2018-10-12T14:07:49.568Z,7.10
2018-10-12T14:10:19.972Z,14.03
2018-10-12T14:12:49.049Z,6.60
2018-10-12T14:15:21.124Z,8.33
2018-10-12T14:17:49.440Z,6.70
2018-10-12T14:20:17.622Z,9.13
2018-10-12T14:22:45.789Z,10.32
2018-10-12T14:25:14.068Z,9.53
2018-10-12T14:27:42.545Z,6.60
2018-10-12T14:30:11.212Z,12.95
2018-10-12T14:32:45.874Z,6.30
2018-10-12T14:35:15.169Z,7.30
2018-10-12T14:37:43.508Z,8.10
2018-10-12T14:40:11.805Z,5.20
2018-10-12T14:42:40.215Z,10.50
2018-10-12T14:45:12.796Z,7.25
2018-10-12T14:47:41.012Z,9.47
2018-10-12T14:50:09.293Z,65.70
2018-10-12T14:52:37.818Z,4.80
2018-10-12T14:55:06.360Z,8.58
2018-10-12T14:57:34.845Z,5.58
2018-10-12T15:00:10.676Z,7.47
2018-10-12T15:02:38.947Z,5.93
2018-10-12T15:05:07.173Z,7.03
2018-10-12T15:07:35.717Z,6.67
2018-10-12T15:10:04.426Z,6.43
2018-10-12T15:12:32.796Z,6.73
2018-10-12T15:15:25.165Z,3.70
2018-10-12T15:17:57.912Z,3.75
2018-10-12T15:20:26.120Z,7.13
2018-10-12T15:22:55.108Z,5.37
2018-10-12T15:25:23.294Z,4.90
2018-10-12T15:27:51.572Z,5.40
2018-10-12T15:30:20.404Z,5.58
2018-10-12T15:32:48.576Z,5.30
2018-10-12T15:35:16.853Z,5.00
2018-10-12T15:37:45.423Z,8.10
2018-10-12T15:40:13.628Z,5.37
2018-10-12T15:42:42.201Z,5.27
2018-10-12T15:45:13.889Z,4.67
2018-10-12T15:47:42.162Z,5.40
2018-10-12T15:50:10.363Z,7.97
2018-10-12T15:52:38.588Z,7.20
2018-10-12T15:55:06.836Z,6.10
2018-10-12T15:57:35.092Z,10.10
2018-10-12T16:00:03.293Z,17.50
2018-10-12T16:02:34.613Z,8.00
2018-10-12T16:05:02.851Z,9.53
2018-10-12T16:07:31.067Z,8.10
2018-10-12T16:09:59.898Z,7.72
2018-10-12T16:12:28.572Z,6.83
2018-10-12T16:14:56.781Z,10.17
2018-10-12T16:17:28.223Z,11.40
2018-10-12T16:19:56.383Z,9.40
2018-10-12T16:22:24.775Z,9.38
2018-10-12T16:25:04.537Z,9.43
2018-10-12T16:27:32.737Z,10.60
2018-10-12T16:30:01.616Z,9.13
2018-10-12T16:32:59.257Z,10.50
2018-10-12T16:35:58.408Z,13.47
2018-10-12T16:38:56.094Z,9.68
2018-10-12T16:41:53.809Z,14.63
2018-10-12T16:44:51.649Z,12.98
2018-10-12T16:47:50.826Z,11.55
2018-10-12T16:50:48.689Z,12.17
2018-10-12T16:53:16.875Z,7.07
2018-10-12T16:56:08.137Z,10.25
2018-10-12T16:59:06.727Z,9.53
2018-10-12T17:02:04.616Z,14.87
2018-10-12T17:05:02.705Z,11.43
2018-10-12T17:08:01.111Z,13.95
2018-10-12T17:10:59.392Z,14.35
2018-10-12T17:13:57.915Z,11.57
2018-10-12T17:16:30.087Z,13.63
2018-10-12T17:19:21.013Z,17.62
2018-10-12T17:22:19.068Z,11.63
2018-10-12T17:25:17.868Z,7.33
2018-10-12T17:28:16.241Z,11.47
2018-10-12T17:30:56.842Z,10.17
2018-10-12T17:33:25.225Z,11.05
2018-10-12T17:35:53.368Z,11.40
2018-10-12T17:38:21.628Z,8.50
2018-10-12T17:40:50.273Z,10.30
2018-10-12T17:43:18.484Z,9.80
2018-10-12T17:45:46.736Z,9.15
2018-10-12T17:48:14.932Z,17.47
2018-10-12T17:50:43.172Z,13.70
2018-10-12T17:53:11.320Z,11.03
2018-10-12T17:55:39.631Z,9.48
2018-10-12T17:58:07.908Z,13.40
2018-10-12T18:00:36.510Z,14.38
2018-10-12T18:03:04.681Z,15.87
2018-10-12T18:05:32.954Z,13.48
2018-10-12T18:08:01.159Z,22.03
2018-10-12T18:10:29.406Z,11.80
2018-10-12T18:12:57.616Z,9.30
2018-10-12T18:15:25.874Z,12.87
2018-10-12T18:17:57.251Z,10.07
2018-10-12T18:20:25.551Z,14.03
2018-10-12T18:22:54.121Z,14.00
2018-10-12T18:25:22.356Z,11.80
2018-10-12T18:27:50.571Z,14.87
2018-10-12T18:30:18.988Z,11.65
2018-10-12T18:32:50.484Z,15.23
2018-10-12T18:35:19.501Z,16.80
2018-10-12T18:37:47.742Z,17.40
2018-10-12T18:40:15.979Z,11.80
2018-10-12T18:42:44.180Z,15.20
2018-10-12T18:45:12.415Z,10.93
2018-10-12T18:47:40.701Z,17.73
2018-10-12T18:50:08.972Z,10.73
2018-10-12T18:52:37.203Z,14.13
2018-10-12T18:55:05.391Z,15.25
2018-10-12T18:57:34.272Z,15.40
2018-10-12T19:00:04.353Z,12.93
2018-10-12T19:02:34.093Z,16.70
2018-10-12T19:05:10.227Z,15.87
2018-10-12T19:07:38.333Z,21.33
2018-10-12T19:10:06.560Z,14.05
2018-10-12T19:12:34.800Z,19.35
2018-10-12T19:15:03.056Z,13.63
2018-10-12T19:17:31.457Z,13.07
2018-10-12T19:19:59.783Z,20.00
2018-10-12T19:22:28.011Z,21.53
2018-10-12T19:24:56.459Z,16.62
2018-10-12T19:27:24.733Z,15.00
2018-10-12T19:29:53.000Z,22.10
2018-10-12T19:32:43.534Z,16.13
2018-10-12T19:35:42.061Z,16.33
2018-10-12T19:38:39.901Z,21.67
2018-10-12T19:41:37.612Z,14.20
2018-10-12T19:44:35.732Z,15.27
2018-10-12T19:47:34.148Z,16.40
2018-10-12T19:50:32.772Z,13.60
2018-10-12T19:53:01.009Z,10.80
2018-10-12T20:12:39.906Z,15.60
2018-10-12T20:15:08.148Z,14.40
2018-10-12T20:17:58.893Z,15.83
2018-10-12T20:20:57.137Z,20.33
2018-10-12T20:23:55.101Z,17.73
2018-10-12T20:26:53.895Z,14.90
2018-10-12T20:29:52.020Z,18.57
2018-10-12T20:32:20.568Z,15.60
2018-10-12T20:34:52.454Z,13.47
2018-10-12T20:37:20.992Z,15.72
2018-10-12T20:39:49.216Z,16.73
2018-10-12T20:42:17.483Z,20.97
2018-10-12T20:44:45.673Z,21.97
2018-10-12T20:47:13.880Z,16.93
2018-10-12T20:49:42.084Z,21.87
2018-10-12T20:52:10.285Z,19.77
2018-10-12T20:54:38.519Z,18.77
2018-10-12T20:57:06.959Z,17.33
2018-10-12T20:59:35.236Z,19.97
2018-10-12T21:02:03.463Z,18.47
2018-10-12T21:04:31.785Z,16.10
2018-10-12T21:07:00.022Z,17.83
2018-10-12T21:09:28.301Z,14.77
2018-10-12T21:11:56.670Z,16.07
2018-10-12T21:14:24.911Z,21.00
2018-10-12T21:16:53.232Z,18.93
2018-10-12T21:19:21.446Z,19.00
2018-10-12T21:21:53.688Z,16.57
2018-10-12T21:24:21.898Z,21.30
2018-10-12T21:26:50.128Z,15.30
2018-10-12T21:29:18.405Z,12.10
2018-10-12T21:31:46.579Z,19.37
2018-10-12T21:34:14.774Z,14.50
2018-10-12T21:36:47.049Z,14.23
2018-10-12T21:39:15.533Z,15.33
2018-10-12T21:41:43.751Z,17.63
2018-10-12T21:44:11.960Z,17.90
2018-10-12T21:46:40.390Z,15.03
2018-10-12T21:49:15.395Z,15.47
2018-10-12T21:51:46.771Z,16.97
2018-10-12T21:54:15.000Z,16.40
2018-10-12T21:56:43.249Z,18.60
2018-10-12T21:59:11.536Z,17.25
2018-10-12T22:01:39.777Z,16.97
2018-10-12T22:04:08.538Z,23.20
2018-10-12T22:06:36.890Z,18.30
2018-10-12T22:09:07.871Z,19.93
2018-10-12T22:11:36.170Z,19.48
2018-10-12T22:14:04.836Z,17.17
2018-10-12T22:16:32.967Z,18.63
2018-10-12T22:19:01.194Z,16.35
2018-10-12T22:21:41.604Z,20.65
2018-10-12T22:24:09.772Z,14.63
2018-10-12T22:26:38.032Z,19.20
2018-10-12T22:29:06.243Z,18.98
2018-10-12T22:31:34.638Z,15.80
2018-10-12T22:34:02.835Z,17.12
2018-10-12T22:36:32.390Z,17.40
2018-10-12T22:39:00.567Z,15.13
2018-10-12T22:41:28.792Z,15.70
2018-10-12T22:43:56.999Z,13.50
2018-10-12T22:46:25.185Z,17.20
2018-10-12T22:48:53.577Z,15.33
2018-10-12T22:51:21.800Z,13.47
2018-10-12T22:53:54.425Z,17.23
2018-10-12T22:56:22.899Z,13.10
2018-10-12T22:58:51.157Z,20.27
2018-10-12T23:01:20.269Z,13.72
2018-10-12T23:03:48.500Z,16.52
2018-10-12T23:06:16.709Z,18.77
2018-10-12T23:08:44.996Z,16.37
2018-10-12T23:11:13.169Z,13.58
2018-10-12T23:13:41.385Z,9.73
2018-10-12T23:16:09.891Z,9.02
2018-10-12T23:18:38.130Z,8.80
2018-10-12T23:21:06.348Z,11.25
2018-10-12T23:23:38.408Z,10.60
2018-10-12T23:26:06.722Z,11.47
2018-10-12T23:28:41.659Z,15.03
2018-10-12T23:31:09.867Z,11.20
2018-10-12T23:33:49.645Z,12.23
2018-10-12T23:36:17.868Z,12.87
2018-10-12T23:38:57.440Z,13.27
2018-10-12T23:41:26.006Z,19.20
2018-10-12T23:43:54.426Z,16.17
2018-10-12T23:46:22.697Z,16.37
2018-10-12T23:48:50.872Z,13.58
2018-10-12T23:51:19.278Z,15.63
2018-10-12T23:53:51.396Z,16.50
2018-10-12T23:56:19.589Z,15.23
2018-10-12T23:58:48.152Z,18.40
